メインページ
METAR-TAF:

METAR-TAF

空港 :

ムンバイ, インド

チャトラパティ・シヴァージー国際空港

緯度: 19-07N, 経度: 072-51E, 海抜: 8m

現時点の気象観測

当レポートは22分前の06:00(UTC)に作成
無風
気温 27°C
湿度 51%
気圧 1016 hPa
視程: 2500m

METAR: VABB 140600Z 00000KT 2500 FU NSC 27/16 Q1016 BECMG 3000 FU

時間: 11:52 (06:22 UTC)

予報

当レポートは1時間22分前の05:00(UTC)に作成
予報は14日の 06時(UTC)から 15日の 12時(UTC)まで有効
西の風 8kt
視程: 4000m
煙, 煙霧
14日の 13時(UTC)から 14日の 15時(UTC)まで徐々に
北西の風 5kt
視程: 3000m
高度10000ftの雲はほとんどない
煙, 煙霧
14日の 17時(UTC)から 14日の 19時(UTC)まで徐々に
北東の風 4kt
視程: 2500m
煙, 煙霧
14日の 20時(UTC)から 14日の 22時(UTC)まで徐々に
の風 kt
視程: 1500m
15日の 00時(UTC)から 15日の 02時(UTC)まで徐々に
の風 4kt
視程: 2500m
煙, 煙霧
15日の 03時(UTC)から 15日の 05時(UTC)まで徐々に
視程: 3000m
煙, 煙霧
15日の 06時(UTC)から 15日の 08時(UTC)まで徐々に
西の風 8kt
視程: 4000m
煙, 煙霧

TAF: VABB 140500Z 1406/1512 28008KT 4000 FU HZ NSC BECMG 1413/1415 32005KT 3000 FU HZ FEW100 BECMG 1417/1419 04004KT 2500 FU HZ BECMG 1420/1422 00000KT 1500 BR BECMG 1500/1502 10004KT 2500 FU HZ BECMG 1503/1505 3000 FU HZ BECMG 1506/1508 28008KT 4000 FU HZ NSC

4,000以上の空港の気象観測と天気予報(METAR報とTAF報)

利用可能な観測所は地図上に黄色い丸と赤い丸で示す。

丸の上にカーソルを重ねると観測所名を参照できる。

次にクリックすると気象観測と天気予報を参照できる。

マップの切り替え:黒色「×」印の緑ボタンをクリックして拡大、「-」印の緑ボタンをクリックして縮小、緑色の三角印をクリックして隣りの地図に切り替え


METAR-TAF: